Whitney, Canada
Current Conditions -  °F | °C
As of 8:02 AM on Monday 20 Oct 2014 (Local Time) from CYWA Reporting Station
Overcast Overcast  
Wind Chill: 33°   Ceiling: 4700
Heat Index: 37°   Visibility: 9mi
Dew Point: 30°   Wind: 6mph
Humidity: 75%   Direction: 120°ESE
Pressure: 29.91"   Gusts: NA
Location:  45.5°N, 78.23°W
Report Text: CYWA 201202Z AUTO 12005KT 090V170 9SM FEW011 FEW031 BKN047 OVC069 03/M01 A2991
Loading
Personal Weather Stations






























Interactive Weather Map
Tropical Storm Tracking
New forecast layout! Learn more

10-Day Weather Forecast

Advertisements
Track Severe Weather on mobile